createdAt,value
2023-04-13T00:00:53.030Z,70.35
2023-04-13T00:03:24.153Z,69.93
2023-04-13T00:05:52.941Z,70.14
2023-04-13T00:08:22.675Z,70.84
2023-04-13T00:10:51.045Z,71.16
2023-04-13T00:13:19.616Z,70.84
2023-04-13T00:15:48.485Z,72.05
2023-04-13T00:18:16.059Z,70.48
2023-04-13T00:20:44.026Z,68.96
2023-04-13T00:23:12.370Z,70.19
2023-04-13T00:25:39.945Z,68.74
2023-04-13T00:28:07.759Z,68.07
2023-04-13T00:30:35.376Z,67.49
2023-04-13T00:33:06.884Z,67.76
2023-04-13T00:35:34.870Z,67.72
2023-04-13T00:38:03.427Z,67.60
2023-04-13T00:40:31.090Z,66.79
2023-04-13T00:43:00.500Z,68.02
2023-04-13T00:45:28.228Z,67.13
2023-04-13T00:47:58.281Z,66.86
2023-04-13T00:50:27.375Z,65.49
2023-04-13T00:52:55.164Z,65.03
2023-04-13T00:55:22.866Z,64.81
2023-04-13T00:57:52.372Z,65.31
2023-04-13T01:00:21.481Z,64.61
2023-04-13T01:02:50.622Z,65.38
2023-04-13T01:05:18.817Z,65.38
2023-04-13T01:07:57.185Z,65.48
2023-04-13T01:10:29.636Z,65.83
2023-04-13T01:13:05.939Z,66.04
2023-04-13T01:15:38.877Z,66.26
2023-04-13T01:18:09.954Z,65.98
2023-04-13T01:20:41.984Z,66.25
2023-04-13T01:23:31.025Z,67.45
2023-04-13T01:26:04.064Z,67.89
2023-04-13T01:28:34.233Z,68.21
2023-04-13T01:31:05.521Z,68.73
2023-04-13T01:33:33.580Z,69.91
2023-04-13T01:36:04.220Z,69.92
2023-04-13T01:38:32.581Z,69.99
2023-04-13T01:41:02.432Z,70.72
2023-04-13T01:43:34.929Z,71.27
2023-04-13T01:46:11.162Z,71.50
2023-04-13T01:48:49.968Z,69.98
2023-04-13T01:51:45.130Z,69.15
2023-04-13T01:54:18.869Z,70.09
2023-04-13T01:56:49.032Z,70.72
2023-04-13T01:59:19.292Z,69.52
2023-04-13T02:01:47.496Z,69.52
2023-04-13T02:04:15.517Z,67.59
2023-04-13T02:06:46.626Z,67.78
2023-04-13T02:09:15.488Z,67.81
2023-04-13T02:11:44.047Z,67.70
2023-04-13T02:14:11.597Z,67.63
2023-04-13T02:16:40.814Z,68.12
2023-04-13T02:19:08.465Z,67.51
2023-04-13T02:21:36.901Z,67.94
2023-04-13T02:24:05.777Z,69.20
2023-04-13T02:26:33.758Z,68.25
2023-04-13T02:29:01.285Z,68.27
2023-04-13T02:31:31.792Z,68.96
2023-04-13T02:34:01.101Z,67.73
2023-04-13T02:36:30.462Z,67.84
2023-04-13T02:39:02.423Z,68.05
2023-04-13T02:41:32.972Z,68.00
2023-04-13T02:44:00.759Z,68.20
2023-04-13T02:46:34.204Z,66.24
2023-04-13T02:49:08.944Z,66.23
2023-04-13T02:51:42.445Z,66.14
2023-04-13T02:54:11.883Z,65.86
2023-04-13T02:56:44.726Z,66.24
2023-04-13T02:59:12.699Z,65.17
2023-04-13T03:01:42.153Z,64.79
2023-04-13T03:04:13.598Z,64.54
2023-04-13T03:06:42.681Z,64.53
2023-04-13T03:09:10.246Z,64.80
2023-04-13T03:11:45.319Z,64.84
2023-04-13T03:14:21.430Z,65.31
2023-04-13T03:16:54.376Z,64.36
2023-04-13T03:19:26.810Z,64.23
2023-04-13T03:21:54.532Z,64.03
2023-04-13T03:24:27.459Z,64.11
2023-04-13T03:26:57.994Z,64.36
2023-04-13T03:29:32.610Z,63.99
2023-04-13T03:32:00.445Z,63.27
2023-04-13T03:34:33.010Z,63.67
2023-04-13T03:37:05.101Z,63.52
2023-04-13T03:39:32.662Z,63.50
2023-04-13T03:42:03.568Z,63.58
2023-04-13T03:44:31.681Z,63.31
2023-04-13T03:47:01.075Z,63.81
2023-04-13T03:49:34.920Z,63.83
2023-04-13T03:52:02.602Z,63.72
2023-04-13T03:54:35.897Z,63.75
2023-04-13T03:57:04.519Z,63.63
2023-04-13T03:59:33.731Z,62.97
2023-04-13T04:02:03.128Z,63.87
2023-04-13T04:04:31.997Z,63.59
2023-04-13T04:07:00.972Z,63.28
2023-04-13T04:09:29.672Z,63.08
2023-04-13T04:11:57.510Z,63.37
2023-04-13T04:14:36.922Z,63.28
2023-04-13T04:17:13.214Z,63.31
2023-04-13T04:19:41.239Z,63.14
2023-04-13T04:22:10.473Z,63.19
2023-04-13T04:24:42.981Z,63.38
2023-04-13T04:27:11.363Z,63.44
2023-04-13T04:29:40.299Z,63.78
2023-04-13T04:32:24.399Z,63.52
2023-04-13T04:34:53.839Z,63.87
2023-04-13T04:37:25.879Z,64.04
2023-04-13T04:40:09.395Z,64.55
2023-04-13T04:42:38.389Z,64.14
2023-04-13T04:45:11.487Z,64.24
2023-04-13T04:47:43.696Z,63.84
2023-04-13T04:50:21.233Z,63.68
2023-04-13T04:52:56.884Z,64.23
2023-04-13T04:55:25.897Z,64.09
2023-04-13T04:57:54.333Z,64.69
2023-04-13T05:00:26.152Z,64.00
2023-04-13T05:03:12.794Z,64.13
2023-04-13T05:05:45.402Z,64.55
2023-04-13T05:08:19.795Z,64.25
2023-04-13T05:10:49.536Z,63.95
2023-04-13T05:13:18.733Z,63.96
2023-04-13T05:15:56.567Z,64.33
2023-04-13T05:18:24.170Z,64.09
2023-04-13T05:20:52.237Z,64.56
2023-04-13T05:23:21.140Z,65.04
2023-04-13T05:25:57.481Z,65.15
2023-04-13T05:28:26.306Z,64.37
2023-04-13T05:30:54.086Z,64.52
2023-04-13T05:33:21.716Z,64.70
2023-04-13T05:35:54.443Z,64.61
2023-04-13T05:38:23.379Z,64.44
2023-04-13T05:40:53.455Z,64.84
2023-04-13T05:43:23.623Z,64.64
2023-04-13T05:45:53.134Z,64.29
2023-04-13T05:48:22.584Z,64.04
2023-04-13T05:50:58.028Z,64.73
2023-04-13T05:53:29.376Z,64.39
2023-04-13T05:55:59.292Z,64.95
2023-04-13T05:58:27.899Z,65.16
2023-04-13T06:01:10.866Z,65.20
2023-04-13T06:03:38.553Z,64.93
2023-04-13T06:06:07.098Z,65.60
2023-04-13T06:08:36.072Z,65.47
2023-04-13T06:11:03.616Z,65.69
2023-04-13T06:13:31.572Z,65.48
2023-04-13T06:15:59.704Z,65.06
2023-04-13T06:18:27.955Z,64.99
2023-04-13T06:20:56.038Z,65.12
2023-04-13T06:23:23.768Z,65.18
2023-04-13T06:25:56.983Z,64.52
2023-04-13T06:28:38.109Z,65.49
2023-04-13T06:31:07.370Z,65.67
2023-04-13T06:33:34.928Z,65.68
2023-04-13T06:36:03.329Z,65.03
2023-04-13T06:38:35.001Z,65.31
2023-04-13T06:41:09.811Z,64.64
2023-04-13T06:43:40.700Z,65.13
2023-04-13T06:46:18.337Z,64.58
2023-04-13T06:48:49.874Z,64.34
2023-04-13T06:51:21.453Z,63.81
2023-04-13T06:53:49.238Z,63.89
2023-04-13T06:56:18.259Z,64.21
2023-04-13T06:58:46.634Z,63.04
2023-04-13T07:01:16.290Z,62.85
2023-04-13T07:03:45.353Z,63.37
2023-04-13T07:06:14.681Z,63.58
2023-04-13T07:08:42.556Z,63.19
2023-04-13T07:11:10.877Z,63.57
2023-04-13T07:13:41.551Z,63.83
2023-04-13T07:16:12.240Z,63.08
2023-04-13T07:18:43.125Z,62.60
2023-04-13T07:21:10.683Z,63.38
2023-04-13T07:24:04.677Z,62.38
2023-04-13T07:26:33.330Z,62.25
2023-04-13T07:29:02.987Z,62.33
2023-04-13T07:31:35.478Z,62.03
2023-04-13T07:34:03.529Z,62.94
2023-04-13T07:36:36.722Z,62.81
2023-04-13T07:39:09.772Z,62.54
2023-04-13T07:41:40.696Z,63.40
2023-04-13T07:44:14.929Z,63.98
2023-04-13T07:46:43.210Z,63.80
2023-04-13T07:49:11.123Z,62.89
2023-04-13T07:51:39.814Z,62.77
2023-04-13T07:54:07.456Z,63.69
2023-04-13T07:56:37.122Z,62.78
2023-04-13T07:59:06.466Z,63.46
2023-04-13T08:01:36.770Z,63.23
2023-04-13T08:04:05.633Z,61.33
2023-04-13T08:06:33.516Z,60.81
2023-04-13T08:09:02.066Z,60.94
2023-04-13T08:11:31.041Z,61.22
2023-04-13T08:14:04.347Z,60.57
2023-04-13T08:16:34.390Z,60.64
2023-04-13T08:19:06.417Z,60.48
2023-04-13T08:21:38.684Z,60.19
2023-04-13T08:24:06.904Z,60.19
2023-04-13T08:26:34.426Z,59.83
2023-04-13T08:29:03.342Z,60.46
2023-04-13T08:31:32.304Z,61.28
2023-04-13T08:34:04.643Z,63.58
2023-04-13T08:36:34.088Z,64.44
2023-04-13T08:39:09.562Z,66.31
2023-04-13T08:41:41.824Z,65.46
2023-04-13T08:44:10.591Z,66.22
2023-04-13T08:46:41.622Z,68.02
2023-04-13T08:49:10.537Z,67.29
2023-04-13T08:51:59.779Z,68.05
2023-04-13T08:54:28.412Z,65.89
2023-04-13T08:56:58.168Z,65.69
2023-04-13T08:59:28.936Z,67.00
2023-04-13T09:01:58.432Z,66.29
2023-04-13T09:04:36.724Z,66.35
2023-04-13T09:07:06.957Z,64.10
2023-04-13T09:09:39.079Z,63.51
2023-04-13T09:12:06.970Z,65.35
2023-04-13T09:14:35.260Z,65.27
2023-04-13T09:17:05.676Z,67.11
2023-04-13T09:19:38.956Z,68.70
2023-04-13T09:22:15.291Z,68.73
2023-04-13T09:24:43.221Z,67.71
2023-04-13T09:27:19.478Z,69.87
2023-04-13T09:29:52.025Z,72.91
2023-04-13T09:32:20.753Z,72.52
2023-04-13T09:34:59.111Z,71.92
2023-04-13T09:37:28.807Z,73.46
2023-04-13T09:39:56.432Z,74.35
2023-04-13T09:42:23.952Z,72.54
2023-04-13T09:44:58.619Z,73.33
2023-04-13T09:47:27.176Z,72.81
2023-04-13T09:49:55.462Z,72.87
2023-04-13T09:52:24.098Z,73.33
2023-04-13T09:54:54.046Z,74.44
2023-04-13T09:57:25.646Z,76.59
2023-04-13T09:59:53.329Z,76.36
2023-04-13T10:02:21.758Z,77.46
2023-04-13T10:04:49.643Z,76.77
2023-04-13T10:07:18.022Z,77.04
2023-04-13T10:09:45.714Z,75.70
2023-04-13T10:12:17.707Z,75.43
2023-04-13T10:14:48.641Z,73.19
2023-04-13T10:17:26.744Z,72.63
2023-04-13T10:19:56.265Z,70.60
2023-04-13T10:22:24.213Z,67.96
2023-04-13T10:24:52.334Z,66.42
2023-04-13T10:27:23.443Z,67.47
2023-04-13T10:29:51.278Z,69.33
2023-04-13T10:32:23.101Z,67.97
2023-04-13T10:34:51.237Z,67.30
2023-04-13T10:37:21.364Z,64.53
2023-04-13T10:39:50.259Z,64.09
2023-04-13T10:42:18.194Z,64.01
2023-04-13T10:44:48.484Z,63.73
2023-04-13T10:47:17.580Z,63.42
2023-04-13T10:49:46.584Z,62.93
2023-04-13T10:52:14.924Z,62.58
2023-04-13T10:54:43.758Z,62.76
2023-04-13T10:57:12.440Z,64.67
2023-04-13T10:59:53.525Z,63.37
2023-04-13T11:02:27.816Z,62.06
2023-04-13T11:04:55.813Z,62.60
2023-04-13T11:07:26.250Z,62.35
2023-04-13T11:10:02.804Z,61.86
2023-04-13T11:12:31.245Z,64.11
2023-04-13T11:14:58.980Z,62.09
2023-04-13T11:17:28.046Z,61.46
2023-04-13T11:19:58.072Z,59.84
2023-04-13T11:22:27.916Z,61.07
2023-04-13T11:25:07.365Z,59.70
2023-04-13T11:27:34.917Z,58.67
2023-04-13T11:30:06.027Z,58.11
2023-04-13T11:32:36.271Z,56.62
2023-04-13T11:35:09.003Z,59.06
2023-04-13T11:37:37.615Z,59.45
2023-04-13T11:40:14.478Z,60.22
2023-04-13T11:42:43.755Z,61.36
2023-04-13T11:45:12.451Z,62.89
2023-04-13T11:47:41.512Z,62.96
2023-04-13T11:50:09.788Z,62.02
2023-04-13T11:52:38.517Z,61.64
2023-04-13T11:55:21.495Z,60.84
2023-04-13T11:57:52.130Z,61.11
2023-04-13T12:00:24.497Z,62.18
2023-04-13T12:05:28.494Z,58.24
2023-04-13T12:07:58.680Z,55.62
2023-04-13T12:10:38.436Z,53.95
2023-04-13T12:13:20.218Z,51.75
2023-04-13T12:16:06.445Z,51.15
2023-04-13T12:18:47.067Z,48.69
2023-04-13T12:21:17.387Z,50.08
2023-04-13T12:23:53.954Z,53.29
2023-04-13T12:28:57.222Z,54.96
2023-04-13T12:31:25.091Z,55.89
2023-04-13T12:33:53.982Z,55.91
2023-04-13T12:36:21.759Z,56.43
2023-04-13T12:38:49.335Z,55.44
2023-04-13T12:41:16.902Z,56.40
2023-04-13T12:43:44.447Z,57.69
2023-04-13T12:46:12.143Z,57.50
2023-04-13T12:48:39.690Z,59.39
2023-04-13T12:51:08.619Z,65.52
2023-04-13T12:53:36.213Z,73.15
2023-04-13T12:56:04.196Z,78.71
2023-04-13T12:58:31.721Z,79.32
2023-04-13T13:00:59.264Z,80.83
2023-04-13T13:03:27.144Z,79.25
2023-04-13T13:05:54.858Z,79.29
2023-04-13T13:08:23.770Z,74.70
2023-04-13T13:10:51.425Z,73.61
2023-04-13T13:13:19.263Z,69.61
2023-04-13T13:15:46.995Z,65.52
2023-04-13T13:18:14.753Z,62.57
2023-04-13T13:20:42.302Z,60.66
2023-04-13T13:23:10.630Z,56.37
2023-04-13T13:25:42.439Z,55.28
2023-04-13T13:28:15.191Z,54.20
2023-04-13T13:30:43.380Z,53.45
2023-04-13T13:33:11.011Z,53.64
2023-04-13T13:35:38.651Z,54.52
2023-04-13T13:38:06.582Z,57.69
2023-04-13T13:40:34.176Z,59.22
2023-04-13T13:43:04.219Z,59.94
2023-04-13T13:45:31.857Z,60.45
2023-04-13T13:48:01.853Z,60.94
2023-04-13T13:50:40.727Z,65.53
2023-04-13T13:53:09.437Z,64.72
2023-04-13T13:55:41.622Z,64.24
2023-04-13T13:58:10.600Z,61.05
2023-04-13T14:00:39.408Z,53.00
2023-04-13T14:03:07.063Z,49.37
2023-04-13T14:05:34.755Z,44.60
2023-04-13T14:08:02.503Z,42.92
2023-04-13T14:10:30.201Z,44.09
2023-04-13T14:12:57.985Z,42.51
2023-04-13T14:15:26.999Z,43.60
2023-04-13T14:18:09.266Z,45.52
2023-04-13T14:20:40.171Z,48.96
2023-04-13T14:23:09.074Z,46.86
2023-04-13T14:25:37.348Z,48.54
2023-04-13T14:28:05.084Z,44.16
2023-04-13T14:30:34.357Z,40.20
2023-04-13T14:33:02.093Z,41.17
2023-04-13T14:35:29.669Z,39.81
2023-04-13T14:37:57.513Z,40.35
2023-04-13T14:40:25.243Z,38.54
2023-04-13T14:42:53.558Z,38.77
2023-04-13T14:45:21.693Z,37.05
2023-04-13T14:47:53.533Z,35.08
2023-04-13T14:50:21.479Z,34.65
2023-04-13T14:52:50.029Z,32.66
2023-04-13T14:55:17.941Z,30.02
2023-04-13T14:57:45.813Z,31.37
2023-04-13T15:00:21.155Z,31.22
2023-04-13T15:02:51.029Z,31.81
2023-04-13T15:05:19.713Z,32.73
2023-04-13T15:07:48.315Z,31.69
2023-04-13T15:10:16.334Z,30.74
2023-04-13T15:12:44.123Z,28.76
2023-04-13T15:15:12.359Z,28.51
2023-04-13T15:17:39.992Z,30.01
2023-04-13T15:20:10.644Z,29.50
2023-04-13T15:22:38.397Z,30.27
2023-04-13T15:25:06.997Z,30.27
2023-04-13T15:27:35.234Z,28.83
2023-04-13T15:30:04.102Z,28.39
2023-04-13T15:32:35.040Z,31.19
2023-04-13T15:35:02.933Z,34.42
2023-04-13T15:37:31.813Z,37.33
2023-04-13T15:39:59.402Z,37.70
2023-04-13T15:42:27.259Z,38.52
2023-04-13T15:44:55.050Z,38.69
2023-04-13T15:47:23.460Z,41.18
2023-04-13T15:49:51.042Z,40.93
2023-04-13T15:52:18.655Z,41.98
2023-04-13T15:54:47.671Z,43.30
2023-04-13T15:57:15.612Z,44.70
2023-04-13T16:07:42.329Z,59.75
2023-04-13T16:10:16.958Z,62.18
2023-04-13T16:12:45.348Z,63.26
2023-04-13T16:15:13.747Z,65.35
2023-04-13T16:17:43.308Z,65.48
2023-04-13T16:20:19.673Z,67.03
2023-04-13T16:22:49.505Z,67.46
2023-04-13T16:25:20.135Z,65.71
2023-04-13T16:27:48.808Z,64.34
2023-04-13T16:30:18.117Z,63.58
2023-04-13T16:32:46.881Z,62.52
2023-04-13T16:35:14.722Z,60.76
2023-04-13T16:37:43.178Z,60.43
2023-04-13T16:40:11.635Z,59.95
2023-04-13T16:42:41.393Z,62.57
2023-04-13T16:45:13.716Z,65.01
2023-04-13T16:47:42.424Z,59.65
2023-04-13T16:50:10.964Z,58.32
2023-04-13T16:52:39.855Z,57.67
2023-04-13T16:55:08.259Z,57.34
2023-04-13T16:57:35.796Z,56.57
2023-04-13T17:00:06.761Z,54.66
2023-04-13T17:02:34.550Z,51.75
2023-04-13T17:05:02.478Z,49.07
2023-04-13T17:07:30.253Z,44.17
2023-04-13T17:09:57.996Z,40.22
2023-04-13T17:12:26.193Z,39.17
2023-04-13T17:14:54.324Z,37.42
2023-04-13T17:17:23.430Z,35.40
2023-04-13T17:19:53.203Z,34.16
2023-04-13T17:22:20.953Z,33.21
2023-04-13T17:24:48.673Z,35.05
2023-04-13T17:27:16.486Z,35.81
2023-04-13T17:29:44.309Z,37.91
2023-04-13T17:32:12.110Z,39.33
2023-04-13T17:34:41.149Z,41.12
2023-04-13T17:37:08.771Z,44.20
2023-04-13T17:39:36.588Z,46.00
2023-04-13T17:42:04.274Z,48.11
2023-04-13T17:44:31.869Z,50.16
2023-04-13T17:46:59.431Z,51.58
2023-04-13T17:49:27.822Z,53.50
2023-04-13T17:51:56.746Z,56.53
2023-04-13T17:54:24.530Z,58.14
2023-04-13T17:56:52.111Z,59.52
2023-04-13T17:59:19.688Z,60.06
2023-04-13T18:01:47.475Z,61.82
2023-04-13T18:04:15.539Z,62.04
2023-04-13T18:06:43.226Z,61.71
2023-04-13T18:09:13.063Z,62.45
2023-04-13T18:11:40.910Z,64.02
2023-04-13T18:14:09.835Z,65.81
2023-04-13T18:16:37.495Z,66.38
2023-04-13T18:19:05.187Z,67.33
2023-04-13T18:21:33.339Z,67.02
2023-04-13T18:24:02.195Z,66.71
2023-04-13T18:26:31.537Z,67.50
2023-04-13T18:28:59.173Z,70.31
2023-04-13T18:31:26.796Z,71.23
2023-04-13T18:33:54.349Z,72.82
2023-04-13T18:36:24.511Z,72.42
2023-04-13T18:38:52.227Z,73.91
2023-04-13T18:41:19.848Z,72.89
2023-04-13T18:43:48.703Z,73.07
2023-04-13T18:46:16.350Z,73.27
2023-04-13T18:48:44.002Z,72.04
2023-04-13T18:51:12.256Z,71.92
2023-04-13T18:53:39.985Z,71.64
2023-04-13T18:56:07.494Z,72.91
2023-04-13T18:58:35.398Z,72.86
2023-04-13T19:01:04.331Z,73.55
2023-04-13T19:03:32.178Z,74.07
2023-04-13T19:05:59.901Z,74.08
2023-04-13T19:08:27.419Z,75.49
2023-04-13T19:10:55.009Z,75.49
2023-04-13T19:13:22.575Z,75.80
2023-04-13T19:15:50.223Z,76.96
2023-04-13T19:18:19.110Z,77.20
2023-04-13T19:20:46.680Z,76.74
2023-04-13T19:23:14.328Z,77.13
2023-04-13T19:25:41.939Z,77.76
2023-04-13T19:28:09.525Z,77.96
2023-04-13T19:30:37.092Z,77.17
2023-04-13T19:33:04.725Z,77.07
2023-04-13T19:35:33.752Z,75.38
2023-04-13T19:38:01.361Z,77.20
2023-04-13T19:40:29.087Z,78.72
2023-04-13T19:42:56.672Z,79.22
2023-04-13T19:45:24.291Z,79.02
2023-04-13T19:47:52.155Z,79.47
2023-04-13T19:50:19.788Z,79.55
2023-04-13T19:52:50.226Z,79.86
2023-04-13T19:55:17.864Z,80.58
2023-04-13T19:57:46.323Z,81.38
2023-04-13T20:00:19.126Z,81.92
2023-04-13T20:02:49.469Z,82.42
2023-04-13T20:05:19.528Z,81.85
2023-04-13T20:07:48.440Z,81.93
2023-04-13T20:10:16.022Z,83.02
2023-04-13T20:12:43.578Z,83.56
2023-04-13T20:15:11.520Z,83.72
2023-04-13T20:17:39.428Z,84.77
2023-04-13T20:20:10.679Z,84.47
2023-04-13T20:22:38.284Z,84.85
2023-04-13T20:25:09.096Z,84.85
2023-04-13T20:27:37.808Z,86.04
2023-04-13T20:30:06.105Z,85.25
2023-04-13T20:32:33.757Z,85.63
2023-04-13T20:35:01.281Z,86.11
2023-04-13T20:37:28.873Z,86.29
2023-04-13T20:39:57.330Z,86.47
2023-04-13T20:42:26.534Z,86.38
2023-04-13T20:44:57.252Z,86.20
2023-04-13T20:47:26.198Z,86.63
2023-04-13T20:49:57.044Z,86.82
2023-04-13T20:52:25.836Z,87.71
2023-04-13T20:54:54.470Z,87.20
2023-04-13T20:57:22.092Z,88.28
2023-04-13T20:59:51.712Z,87.25
2023-04-13T21:02:19.444Z,87.92
2023-04-13T21:04:47.611Z,87.61
2023-04-13T21:07:16.134Z,88.03
2023-04-13T21:09:46.453Z,87.76
2023-04-13T21:12:14.348Z,88.50
2023-04-13T21:14:41.860Z,88.62
2023-04-13T21:17:11.717Z,88.50
2023-04-13T21:19:39.290Z,88.56
2023-04-13T21:22:06.868Z,88.95
2023-04-13T21:24:34.452Z,89.55
2023-04-13T21:27:02.335Z,89.88
2023-04-13T21:29:36.978Z,89.70
2023-04-13T21:32:08.535Z,89.44
2023-04-13T21:34:39.305Z,88.51
2023-04-13T21:37:08.966Z,89.56
2023-04-13T21:39:36.861Z,90.00
2023-04-13T21:42:05.534Z,90.16
2023-04-13T21:44:33.186Z,91.22
2023-04-13T21:47:01.096Z,89.58
2023-04-13T21:49:28.712Z,90.33
2023-04-13T21:51:57.620Z,89.85
2023-04-13T21:54:25.273Z,89.13
2023-04-13T21:56:52.834Z,90.20
2023-04-13T21:59:20.389Z,91.45
2023-04-13T22:01:48.171Z,91.85
2023-04-13T22:04:15.919Z,92.12
2023-04-13T22:06:43.608Z,92.25
2023-04-13T22:09:13.300Z,91.93
2023-04-13T22:11:41.044Z,92.34
2023-04-13T22:14:08.809Z,93.28
2023-04-13T22:16:36.611Z,93.38
2023-04-13T22:19:04.190Z,92.78
2023-04-13T22:21:31.869Z,93.88
2023-04-13T22:23:59.462Z,94.24
2023-04-13T22:26:28.629Z,93.58
2023-04-13T22:28:56.498Z,93.91
2023-04-13T22:31:24.533Z,94.47
2023-04-13T22:33:52.247Z,94.87
2023-04-13T22:36:21.219Z,94.96
2023-04-13T22:38:49.628Z,94.67
2023-04-13T22:41:17.365Z,96.00
2023-04-13T22:43:48.832Z,95.65
2023-04-13T22:46:16.512Z,94.99
2023-04-13T22:48:44.204Z,96.08
2023-04-13T22:51:12.094Z,96.47
2023-04-13T22:53:39.691Z,96.70
2023-04-13T22:56:07.720Z,96.14
2023-04-13T22:58:35.312Z,95.60
2023-04-13T23:01:04.506Z,96.75
2023-04-13T23:03:32.170Z,97.82
2023-04-13T23:05:59.927Z,96.29
2023-04-13T23:08:29.123Z,97.28
2023-04-13T23:10:56.775Z,97.55
2023-04-13T23:13:24.363Z,97.04
2023-04-13T23:15:59.997Z,97.81
2023-04-13T23:18:29.011Z,97.69
2023-04-13T23:20:56.646Z,97.49
2023-04-13T23:23:25.736Z,97.40
2023-04-13T23:25:53.397Z,97.29
2023-04-13T23:28:21.000Z,96.99
2023-04-13T23:30:48.567Z,98.18
2023-04-13T23:33:16.208Z,97.39
2023-04-13T23:35:52.574Z,97.40
2023-04-13T23:38:20.543Z,97.00
2023-04-13T23:40:48.124Z,97.13
2023-04-13T23:43:15.724Z,96.69
2023-04-13T23:45:43.464Z,97.25
2023-04-13T23:48:11.273Z,97.63
2023-04-13T23:50:38.883Z,96.99
2023-04-13T23:53:07.798Z,97.97
2023-04-13T23:55:35.511Z,97.29
2023-04-13T23:58:03.236Z,97.26
